Time;durP1;ratioP1;P1;durP2;ratioP2;P2;SDS_P1;SDS_P2;PMS_P1;PMS_P2;Temp;Humidity;BMP_temperature;BMP_pressure;BME280_temperature;BME280_humidity;BME280_pressure;Samples;Min_cycle;Max_cycle;Signal;HPM_P1;HPM_P2
2021/06/18 00:00:44;;;;;;;0.20;0.20;;;;;;;15.13;65.35;100705.19;6190041;23;20020;-83
2021/06/18 00:03:10;;;;;;;0.20;0.20;;;;;;;15.03;65.80;100712.59;6191492;23;20096;-83
2021/06/18 00:05:36;;;;;;;0.20;0.20;;;;;;;14.98;66.90;100706.72;6184219;23;20025;-83
2021/06/18 00:08:02;;;;;;;0.20;0.20;;;;;;;14.92;68.67;100712.81;6183798;23;20073;-84
2021/06/18 00:10:28;;;;;;;0.20;0.20;;;;;;;14.86;69.86;100713.41;6183989;23;20104;-81
2021/06/18 00:12:54;;;;;;;0.20;0.20;;;;;;;14.80;70.47;100719.47;6185442;23;20017;-86
2021/06/18 00:15:19;;;;;;;0.20;0.20;;;;;;;14.75;71.13;100714.47;6188332;23;20021;-83
2021/06/18 00:17:46;;;;;;;0.20;0.20;;;;;;;14.64;71.75;100715.53;6158541;23;20151;-84
2021/06/18 00:20:13;;;;;;;0.20;0.20;;;;;;;14.63;72.18;100712.97;6183667;23;20791;-83
2021/06/18 00:22:39;;;;;;;0.20;0.20;;;;;;;14.57;72.89;100714.44;6182257;23;20029;-85
2021/06/18 00:25:06;;;;;;;0.20;0.20;;;;;;;14.57;72.98;100719.00;6180199;23;20048;-84
2021/06/18 00:27:33;;;;;;;0.20;0.20;;;;;;;14.57;72.92;100725.31;6181630;23;20164;-84
2021/06/18 00:30:00;;;;;;;0.20;0.20;;;;;;;14.53;73.48;100726.63;6184435;23;20067;-84
2021/06/18 00:32:27;;;;;;;0.20;0.20;;;;;;;14.54;73.41;100731.03;6190073;23;20025;-83
2021/06/18 00:34:52;;;;;;;0.20;0.20;;;;;;;14.52;73.58;100732.22;6190946;23;20031;-85
2021/06/18 00:37:18;;;;;;;0.20;0.20;;;;;;;14.50;73.57;100737.81;6139756;23;20021;-84
2021/06/18 00:39:44;;;;;;;0.20;0.20;;;;;;;14.50;73.46;100734.22;6187143;23;20067;-83
2021/06/18 00:42:10;;;;;;;0.25;0.25;;;;;;;14.51;73.29;100742.22;6131846;23;20245;-85
2021/06/18 00:44:36;;;;;;;0.20;0.20;;;;;;;14.55;73.17;100749.06;6156031;23;20088;-81
2021/06/18 00:47:03;;;;;;;0.88;0.47;;;;;;;14.60;72.11;100752.22;6180181;23;20401;-84
2021/06/18 00:49:29;;;;;;;0.20;0.20;;;;;;;14.60;73.00;100757.66;6181740;23;20021;-82
2021/06/18 00:51:56;;;;;;;0.30;0.20;;;;;;;14.53;73.33;100753.84;6154914;23;20448;-82
2021/06/18 00:54:29;;;;;;;0.20;0.20;;;;;;;14.53;72.51;100751.13;6106388;23;20223;-83
2021/06/18 00:56:59;;;;;;;0.20;0.20;;;;;;;14.54;72.04;100760.97;6131561;23;20439;-85
2021/06/18 00:59:27;;;;;;;0.20;0.20;;;;;;;14.57;71.44;100757.13;6181933;23;20448;-84
2021/06/18 01:01:54;;;;;;;0.20;0.20;;;;;;;14.59;70.87;100752.38;6178923;23;20021;-85
2021/06/18 01:04:21;;;;;;;0.20;0.20;;;;;;;14.54;71.54;100735.63;6180517;23;20016;-81
2021/06/18 01:06:53;;;;;;;0.20;0.20;;;;;;;14.51;69.75;100755.84;6137636;23;20024;-87
2021/06/18 01:09:19;;;;;;;0.20;0.20;;;;;;;14.51;70.70;100758.56;6190036;23;20021;-86
2021/06/18 01:11:59;;;;;;;0.20;0.20;;;;;;;14.55;69.64;100762.69;6164222;23;20111;-85
2021/06/18 01:14:52;;;;;;;0.20;0.20;;;;;;;14.55;69.94;100754.53;6191043;23;20021;-87
2021/06/18 01:17:21;;;;;;;0.20;0.20;;;;;;;14.56;69.76;100752.69;6188520;23;20029;-86
2021/06/18 01:19:53;;;;;;;0.20;0.20;;;;;;;14.54;70.06;100758.25;6162673;23;20048;-85
2021/06/18 01:22:21;;;;;;;0.20;0.20;;;;;;;14.56;69.94;100753.53;6188447;23;20071;-86
2021/06/18 01:25:03;;;;;;;0.43;0.30;;;;;;;14.62;70.29;100758.34;6162030;23;20024;-88
2021/06/18 01:27:31;;;;;;;0.20;0.20;;;;;;;14.59;69.85;100745.09;6191868;23;20144;-86
2021/06/18 01:30:05;;;;;;;0.20;0.20;;;;;;;14.63;69.46;100751.94;6173714;23;20025;-88
2021/06/18 01:32:43;;;;;;;0.20;0.20;;;;;;;14.57;69.39;100755.25;6200611;23;20032;-87
2021/06/18 01:35:16;;;;;;;0.28;0.20;;;;;;;14.53;69.66;100747.53;6174479;23;20005;-86
2021/06/18 01:37:44;;;;;;;0.20;0.20;;;;;;;14.57;69.87;100757.13;6175884;23;20031;-87
2021/06/18 01:40:11;;;;;;;0.20;0.20;;;;;;;14.54;69.89;100763.69;6201142;23;20320;-88
2021/06/18 01:42:41;;;;;;;0.30;0.20;;;;;;;14.54;70.14;100763.69;6180390;23;20105;-86
2021/06/18 01:45:10;;;;;;;0.20;0.20;;;;;;;14.60;70.46;100763.13;6207227;22;20039;-87
2021/06/18 01:47:38;;;;;;;0.20;0.20;;;;;;;14.59;69.98;100761.41;6182835;23;20012;-87
2021/06/18 01:50:06;;;;;;;0.20;0.20;;;;;;;14.65;70.33;100770.81;6183467;22;20073;-86
2021/06/18 01:52:34;;;;;;;0.20;0.20;;;;;;;14.69;70.34;100773.09;6208414;22;20066;-87
2021/06/18 01:55:01;;;;;;;0.20;0.20;;;;;;;14.73;70.00;100783.69;6183935;22;20282;-87
2021/06/18 01:57:29;;;;;;;0.20;0.20;;;;;;;14.78;70.00;100787.69;6183744;22;20069;-87
2021/06/18 01:59:55;;;;;;;0.20;0.20;;;;;;;14.77;70.26;100783.25;6134900;22;20084;-87
2021/06/18 02:02:22;;;;;;;0.20;0.20;;;;;;;14.81;70.52;100791.94;6183019;23;20036;-87
2021/06/18 02:04:50;;;;;;;0.25;0.25;;;;;;;14.81;70.32;100798.28;6206306;22;20013;-86
2021/06/18 02:07:16;;;;;;;0.20;0.20;;;;;;;14.84;70.69;100797.09;6198155;23;20017;-88
2021/06/18 02:09:46;;;;;;;0.20;0.20;;;;;;;14.86;70.69;100795.94;6196365;23;20072;-86
2021/06/18 02:12:12;;;;;;;0.20;0.20;;;;;;;14.88;71.04;100799.38;6149633;23;20021;-89
2021/06/18 02:14:38;;;;;;;1.00;0.40;;;;;;;14.90;71.66;100799.22;6199837;23;20043;-86
2021/06/18 02:17:05;;;;;;;0.20;0.20;;;;;;;14.96;71.31;100806.78;6147369;23;20103;-87
2021/06/18 02:19:35;;;;;;;0.20;0.20;;;;;;;14.96;71.49;100806.78;6196195;23;20028;-87
2021/06/18 02:22:05;;;;;;;0.20;0.20;;;;;;;14.98;71.70;100810.22;6197310;23;20029;-87
2021/06/18 02:24:32;;;;;;;0.20;0.20;;;;;;;14.99;71.45;100801.06;6144958;23;20021;-87
2021/06/18 02:26:59;;;;;;;0.20;0.20;;;;;;;15.04;72.42;100801.44;6169229;23;20111;-88
2021/06/18 02:29:26;;;;;;;0.20;0.20;;;;;;;15.09;72.25;100810.00;6196686;23;20020;-87
2021/06/18 02:31:55;;;;;;;0.20;0.20;;;;;;;15.17;71.41;100810.13;6194228;23;20034;-87
2021/06/18 02:34:21;;;;;;;0.20;0.20;;;;;;;15.27;72.00;100820.09;6148657;23;20029;-86
2021/06/18 02:36:47;;;;;;;0.20;0.20;;;;;;;15.39;71.69;100824.28;6168694;23;20063;-87
2021/06/18 02:39:13;;;;;;;0.20;0.20;;;;;;;15.52;71.09;100818.50;6195771;22;20029;-87
2021/06/18 02:41:40;;;;;;;0.20;0.20;;;;;;;15.65;71.01;100828.03;6195778;23;20025;-86
2021/06/18 02:44:07;;;;;;;0.20;0.20;;;;;;;15.81;70.07;100829.19;6196084;23;20041;-85
2021/06/18 02:46:39;;;;;;;0.20;0.20;;;;;;;15.87;69.41;100828.59;6169751;23;20021;-88
2021/06/18 02:49:09;;;;;;;0.20;0.20;;;;;;;16.01;69.53;100824.41;6199699;23;20032;-86
2021/06/18 02:51:43;;;;;;;0.30;0.20;;;;;;;16.10;68.87;100827.06;6133976;23;20005;-89
2021/06/18 02:54:17;;;;;;;1.92;0.60;;;;;;;16.24;67.73;100830.25;6181575;22;20076;-86
2021/06/18 02:56:59;;;;;;;0.40;0.30;;;;;;;16.46;66.91;100840.66;6206124;22;20045;-88
2021/06/18 02:59:47;;;;;;;0.45;0.20;;;;;;;16.65;66.59;100845.03;6179884;23;20028;-87
2021/06/18 03:05:13;;;;;;;0.30;0.30;;;;;;;17.07;65.08;100839.63;6167730;23;19936;-87
2021/06/18 03:07:44;;;;;;;0.63;0.40;;;;;;;17.27;63.95;100842.13;6216851;22;20004;-85
2021/06/18 03:10:15;;;;;;;0.20;0.20;;;;;;;17.42;63.12;100854.13;6206418;23;20068;-86
2021/06/18 03:12:44;;;;;;;0.30;0.30;;;;;;;17.62;62.05;100841.00;6213872;23;19997;-87
2021/06/18 03:15:11;;;;;;;0.20;0.20;;;;;;;17.77;61.73;100846.69;6178601;23;20029;-88
2021/06/18 03:17:40;;;;;;;0.20;0.20;;;;;;;17.93;61.53;100843.13;6175632;23;20017;-89
2021/06/18 03:20:09;;;;;;;0.20;0.20;;;;;;;18.15;57.54;100844.34;6151117;23;20021;-87
2021/06/18 03:22:36;;;;;;;0.20;0.20;;;;;;;18.36;56.27;100836.47;6152695;23;20020;-87
2021/06/18 03:25:05;;;;;;;0.30;0.30;;;;;;;18.49;55.61;100846.88;6178276;23;20024;-88
2021/06/18 03:27:34;;;;;;;0.20;0.20;;;;;;;18.73;55.39;100844.13;6202729;23;20112;-88
2021/06/18 03:30:01;;;;;;;0.20;0.20;;;;;;;18.92;54.26;100839.28;6154337;23;20021;-88
2021/06/18 03:32:28;;;;;;;0.20;0.20;;;;;;;19.07;53.30;100822.94;6201577;23;20107;-89
2021/06/18 03:34:54;;;;;;;0.20;0.20;;;;;;;19.30;53.07;100821.09;6200626;23;20023;-86
2021/06/18 03:37:21;;;;;;;0.20;0.20;;;;;;;19.53;52.28;100818.44;6206699;23;20063;-87
2021/06/18 03:39:48;;;;;;;0.20;0.20;;;;;;;19.74;50.39;100817.78;6139804;23;20025;-88
2021/06/18 03:42:15;;;;;;;0.20;0.20;;;;;;;19.74;49.57;100815.03;6190004;23;20021;-87
2021/06/18 03:44:41;;;;;;;0.20;0.20;;;;;;;19.88;48.72;100822.50;6161216;23;20032;-87
2021/06/18 03:47:10;;;;;;;0.20;0.20;;;;;;;20.02;47.63;100828.22;6165539;23;20021;-88
2021/06/18 03:49:37;;;;;;;0.30;0.30;;;;;;;20.19;47.65;100824.31;6171023;23;20021;-87
2021/06/18 03:52:03;;;;;;;0.28;0.28;;;;;;;20.39;47.02;100828.22;6165398;23;20025;-89
2021/06/18 03:54:32;;;;;;;0.20;0.20;;;;;;;20.51;45.95;100836.03;6181382;23;20032;-87
2021/06/18 03:57:01;;;;;;;0.20;0.20;;;;;;;20.45;46.56;100835.72;6206432;22;20032;-90
2021/06/18 03:59:29;;;;;;;0.30;0.30;;;;;;;20.65;46.28;100837.97;6167813;23;20068;-88
2021/06/18 04:01:56;;;;;;;0.20;0.20;;;;;;;20.89;46.21;100839.59;6169661;22;20021;-88
2021/06/18 04:04:24;;;;;;;0.20;0.20;;;;;;;20.95;45.70;100842.44;6212596;22;20029;-86
2021/06/18 04:10:08;;;;;;;0.30;0.30;;;;;;;21.47;45.76;100850.78;6174083;22;20099;-89
2021/06/18 04:12:36;;;;;;;0.30;0.30;;;;;;;21.63;45.29;100853.28;6146880;23;20089;-88
2021/06/18 04:18:12;;;;;;;0.30;0.30;;;;;;;22.05;44.65;100844.22;6156970;22;20009;-91
2021/06/18 04:26:48;;;;;;;0.30;0.30;;;;;;;22.29;44.85;100856.75;6148324;22;20416;-82
2021/06/18 04:29:15;;;;;;;0.40;0.40;;;;;;;22.62;44.02;100864.44;6202932;22;20005;-89
2021/06/18 04:31:43;;;;;;;0.40;0.40;;;;;;;22.77;43.36;100867.94;6122537;23;20035;-90
2021/06/18 05:10:19;;;;;;;0.50;0.50;;;;;;;25.34;36.68;100889.16;6205738;23;20075;-84
2021/06/18 05:12:45;;;;;;;0.50;0.50;;;;;;;25.58;35.53;100882.88;6187004;23;20087;-86
2021/06/18 05:15:12;;;;;;;0.50;0.50;;;;;;;26.04;35.25;100883.75;6169499;23;20045;-83
2021/06/18 05:17:38;;;;;;;0.50;0.50;;;;;;;25.71;35.22;100884.75;6146818;23;20587;-86
2021/06/18 05:20:05;;;;;;;0.50;0.50;;;;;;;25.65;34.96;100875.41;6144054;23;20029;-82
2021/06/18 05:22:32;;;;;;;0.50;0.50;;;;;;;25.82;34.82;100886.03;6190718;23;20087;-85
2021/06/18 05:24:58;;;;;;;0.50;0.50;;;;;;;26.37;34.79;100880.75;6146454;23;20020;-85
2021/06/18 05:27:24;;;;;;;0.50;0.50;;;;;;;26.86;34.30;100881.84;6198414;23;20117;-84
2021/06/18 05:29:51;;;;;;;0.50;0.50;;;;;;;27.08;33.95;100874.75;6192704;23;20020;-84
2021/06/18 05:32:20;;;;;;;0.55;0.55;;;;;;;26.95;33.08;100874.94;6196654;23;20023;-84
2021/06/18 05:34:47;;;;;;;0.60;0.60;;;;;;;26.80;34.08;100883.63;6169186;23;20051;-84
2021/06/18 05:37:16;;;;;;;0.60;0.60;;;;;;;27.18;31.72;100871.50;6196037;23;20021;-87
2021/06/18 05:39:50;;;;;;;0.60;0.60;;;;;;;27.51;32.32;100868.31;6202732;23;20025;-85
2021/06/18 05:42:20;;;;;;;0.68;0.68;;;;;;;28.18;31.86;100868.25;6178745;23;20194;-86
2021/06/18 05:45:21;;;;;;;0.60;0.60;;;;;;;27.73;31.23;100876.16;6178994;23;20112;-89
2021/06/18 05:47:48;;;;;;;0.70;0.70;;;;;;;27.78;31.70;100868.81;6095185;23;20037;-86
2021/06/18 05:50:21;;;;;;;0.70;0.70;;;;;;;27.89;31.63;100867.19;6036764;23;20082;-88
2021/06/18 05:52:48;;;;;;;0.70;0.70;;;;;;;28.08;31.06;100874.41;6107949;22;20009;-89
2021/06/18 05:55:17;;;;;;;0.60;0.60;;;;;;;28.65;30.99;100867.53;6142854;22;20080;-89
2021/06/18 05:57:54;;;;;;;0.60;0.60;;;;;;;29.35;30.77;100878.63;6172591;22;20019;-83
2021/06/18 06:04:25;;;;;;;0.70;0.70;;;;;;;29.50;28.98;100878.94;6156873;23;20021;31
2021/06/18 06:06:56;;;;;;;0.70;0.70;;;;;;;30.04;29.13;100885.09;6145219;23;20548;-85
2021/06/18 06:09:25;;;;;;;0.70;0.70;;;;;;;30.25;28.69;100879.94;6122098;23;20010;-88
2021/06/18 06:15:15;;;;;;;0.70;0.70;;;;;;;29.38;28.95;100878.16;6198455;22;20020;-88
2021/06/18 06:17:50;;;;;;;0.70;0.70;;;;;;;30.36;28.52;100876.22;6180340;23;20024;-86
2021/06/18 06:20:28;;;;;;;0.80;0.80;;;;;;;29.92;28.48;100867.56;6175360;22;20047;-87
2021/06/18 06:25:52;;;;;;;0.80;0.80;;;;;;;30.96;27.24;100866.31;6195892;22;20096;-89
2021/06/18 06:34:57;;;;;;;0.80;0.80;;;;;;;31.10;26.29;100861.19;6155861;23;20027;31
2021/06/18 06:40:12;;;;;;;0.90;0.90;;;;;;;31.19;26.57;100874.47;6147210;23;20039;31
2021/06/18 06:46:30;;;;;;;0.80;0.80;;;;;;;32.44;24.82;100881.28;6156163;23;20009;31
2021/06/18 06:59:03;;;;;;;1.00;1.00;;;;;;;32.74;24.94;100869.50;6173506;23;20103;-88
2021/06/18 07:14:48;;;;;;;1.00;1.00;;;;;;;31.95;25.03;100873.78;6194582;22;20186;-86
2021/06/18 07:29:10;;;;;;;1.05;1.05;;;;;;;33.93;24.46;100881.06;6153648;22;21108;-85
2021/06/18 08:23:00;;;;;;;1.25;1.25;;;;;;;37.03;20.28;100858.56;6153595;23;20130;31
2021/06/18 08:25:29;;;;;;;1.00;1.00;;;;;;;36.75;20.81;100848.97;6097294;23;20798;-84
2021/06/18 08:31:03;;;;;;;1.20;1.20;;;;;;;36.92;20.61;100856.97;6186670;22;20072;-89
2021/06/18 08:46:42;;;;;;;1.10;1.10;;;;;;;37.60;21.09;100851.13;6196385;22;20008;-87
2021/06/18 09:11:38;;;;;;;1.10;1.10;;;;;;;36.22;21.19;100821.53;6295294;22;20995;31
2021/06/18 09:20:43;;;;;;;1.17;1.17;;;;;;;36.29;21.36;100825.97;6322492;22;20224;-88
2021/06/18 09:29:33;;;;;;;1.20;1.20;;;;;;;37.49;20.12;100826.19;6321263;22;20018;31
2021/06/18 09:32:12;;;;;;;1.08;1.08;;;;;;;37.37;20.25;100820.91;6284211;22;20029;31
2021/06/18 09:58:37;;;;;;;0.90;0.90;;;;;;;37.55;20.47;100802.38;6247377;22;20961;-88
2021/06/18 10:24:20;;;;;;;1.10;1.10;;;;;;;37.03;21.03;100773.97;6131332;22;21041;-76
2021/06/18 10:26:53;;;;;;;1.00;1.00;;;;;;;36.34;21.26;100784.50;6215498;22;20023;-86
2021/06/18 10:59:29;;;;;;;0.90;0.90;;;;;;;37.92;20.20;100766.84;6159220;22;20035;31
2021/06/18 11:02:01;;;;;;;1.13;1.10;;;;;;;38.00;20.12;100766.16;6187803;22;20019;-88
2021/06/18 11:23:17;;;;;;;;;;;;;;;;;;;;;
2021/06/18 11:29:29;;;;;;;1.00;1.00;;;;;;;35.83;22.51;100739.88;6167163;22;20078;-85
2021/06/18 11:38:43;;;;;;;1.00;1.00;;;;;;;36.33;21.80;100725.66;6278305;22;20003;-86
2021/06/18 11:41:15;;;;;;;1.00;1.00;;;;;;;36.51;21.26;100724.94;6230001;22;20025;-85
2021/06/18 11:46:44;;;;;;;0.90;0.90;;;;;;;35.81;22.53;100718.81;6198599;22;20029;31
2021/06/18 11:49:54;;;;;;;;;;;;;;;36.15;22.24;100719.63;6280381;22;20043;-85
2021/06/18 11:52:24;;;;;;;0.80;0.80;;;;;;;35.74;22.59;100714.34;6237373;22;20188;-86
2021/06/18 11:58:33;;;;;;;0.60;0.60;;;;;;;33.24;25.22;100703.63;6302869;22;20007;-85
2021/06/18 12:10:27;;;;;;;0.40;0.40;;;;;;;32.80;25.44;100705.94;6263935;22;20018;-86
2021/06/18 12:12:59;;;;;;;0.40;0.40;;;;;;;32.33;25.86;100696.44;6229929;22;20014;-87
2021/06/18 12:15:35;;;;;;;0.45;0.45;;;;;;;32.26;25.64;100698.63;6219641;22;20087;-85
2021/06/18 12:18:04;;;;;;;0.30;0.30;;;;;;;31.92;26.09;100700.88;6237518;22;20054;-85
2021/06/18 12:20:39;;;;;;;0.20;0.20;;;;;;;31.83;25.83;100703.28;6262723;22;20000;-85
2021/06/18 12:23:39;;;;;;;0.10;0.10;;;;;;;31.01;27.07;100700.72;6230479;22;20107;-86
2021/06/18 12:26:27;;;;;;;0.10;0.10;;;;;;;30.57;27.69;100697.91;6271530;22;20034;-85
2021/06/18 12:31:49;;;;;;;0.10;0.10;;;;;;;29.96;29.26;100700.59;6112756;23;20006;-87
2021/06/18 12:34:16;;;;;;;0.10;0.10;;;;;;;30.00;29.22;100697.03;6206200;22;20030;-85
2021/06/18 12:36:48;;;;;;;0.10;0.10;;;;;;;29.83;29.61;100709.28;6211485;22;20032;-85
2021/06/18 12:43:06;;;;;;;0.28;0.10;;;;;;;29.18;29.59;100705.00;6169142;22;20332;-85
2021/06/18 12:45:54;;;;;;;0.10;0.10;;;;;;;29.11;30.34;100688.47;6271034;22;20024;-86
2021/06/18 12:48:45;;;;;;;0.10;0.10;;;;;;;28.82;30.92;100693.97;6267820;22;20038;-85
2021/06/18 12:51:21;;;;;;;0.10;0.10;;;;;;;28.84;30.59;100688.97;6294816;22;20027;-85
2021/06/18 12:54:10;;;;;;;0.10;0.10;;;;;;;28.62;30.91;100689.91;6208211;22;20026;-85
2021/06/18 12:56:53;;;;;;;0.10;0.10;;;;;;;28.71;30.92;100683.72;6242666;22;20031;-85
2021/06/18 12:59:25;;;;;;;0.10;0.10;;;;;;;28.71;31.01;100678.16;6272611;22;20016;-85
2021/06/18 13:02:37;;;;;;;0.10;0.10;;;;;;;28.63;31.49;100677.66;6217210;22;20014;-86
2021/06/18 13:05:27;;;;;;;0.10;0.10;;;;;;;29.00;30.91;100679.06;6141206;22;20087;-84
2021/06/18 13:07:57;;;;;;;0.15;0.10;;;;;;;28.57;31.26;100671.16;6237763;23;20034;-86
2021/06/18 13:10:46;;;;;;;0.10;0.10;;;;;;;28.21;32.00;100675.03;6238848;23;20024;-85
2021/06/18 13:13:33;;;;;;;0.10;0.10;;;;;;;27.97;32.43;100675.03;6236130;23;20043;-85
2021/06/18 13:16:19;;;;;;;0.10;0.10;;;;;;;27.96;32.34;100670.56;6215185;23;20024;-85
2021/06/18 13:19:04;;;;;;;0.10;0.10;;;;;;;28.05;32.64;100677.47;6192580;23;20130;-85
2021/06/18 13:21:57;;;;;;;0.20;0.10;;;;;;;28.25;32.22;100667.91;6265299;22;20024;-87
2021/06/18 13:25:08;;;;;;;0.10;0.10;;;;;;;28.39;32.39;100663.81;6244250;22;20018;-86
2021/06/18 13:27:52;;;;;;;0.10;0.10;;;;;;;28.48;31.99;100651.19;6262516;22;20015;-84
2021/06/18 13:30:31;;;;;;;0.10;0.10;;;;;;;28.27;32.84;100643.50;6350010;22;20022;-83
2021/06/18 13:33:15;;;;;;;0.10;0.10;;;;;;;27.88;33.70;100657.03;6306080;22;20007;-85
2021/06/18 13:35:57;;;;;;;0.10;0.10;;;;;;;27.64;33.63;100645.88;6323994;22;20057;-87
2021/06/18 13:47:59;;;;;;;0.10;0.10;;;;;;;27.59;33.65;100640.16;6202793;23;20032;-84
2021/06/18 13:53:40;;;;;;;0.10;0.10;;;;;;;27.50;33.95;100626.88;6323196;22;20027;-85
2021/06/18 13:56:17;;;;;;;0.10;0.10;;;;;;;27.60;33.92;100636.28;6291562;22;20030;-85
2021/06/18 13:58:48;;;;;;;0.10;0.10;;;;;;;27.45;34.24;100624.81;6242038;22;20014;-82
2021/06/18 14:01:14;;;;;;;0.10;0.10;;;;;;;27.43;34.22;100624.22;6292247;22;20091;-84
2021/06/18 14:03:59;;;;;;;0.10;0.10;;;;;;;27.34;33.76;100625.63;6298552;22;20015;-83
2021/06/18 14:07:03;;;;;;;0.10;0.10;;;;;;;27.24;34.10;100628.13;6266297;22;20082;-86
2021/06/18 14:09:38;;;;;;;0.10;0.10;;;;;;;27.16;34.34;100627.38;6218880;23;20080;-85
2021/06/18 14:12:41;;;;;;;0.10;0.10;;;;;;;27.08;34.62;100624.91;6213960;23;20047;-86
2021/06/18 14:15:29;;;;;;;0.10;0.10;;;;;;;27.10;34.77;100633.88;6217683;23;20016;-86
2021/06/18 14:17:57;;;;;;;0.10;0.10;;;;;;;27.17;34.90;100629.09;6217018;23;20024;-85
2021/06/18 14:20:54;;;;;;;0.10;0.10;;;;;;;27.11;34.98;100618.94;6215568;23;20102;-84
2021/06/18 14:23:49;;;;;;;0.10;0.10;;;;;;;27.11;34.89;100613.38;6255544;22;20024;-87
2021/06/18 14:26:52;;;;;;;0.20;0.20;;;;;;;27.06;34.87;100617.91;6245711;23;20016;-85
2021/06/18 14:29:28;;;;;;;0.10;0.10;;;;;;;27.04;35.33;100607.03;6193277;22;20111;-86
2021/06/18 14:31:57;;;;;;;0.20;0.10;;;;;;;27.05;35.30;100613.44;6190480;23;20016;-84
2021/06/18 14:34:24;;;;;;;0.10;0.10;;;;;;;27.01;35.14;100613.06;6265127;22;20012;-83
2021/06/18 14:36:51;;;;;;;0.10;0.10;;;;;;;26.90;35.23;100605.53;6265043;22;20012;-85
2021/06/18 14:39:23;;;;;;;0.10;0.10;;;;;;;26.89;35.30;100601.94;6241083;23;20008;-84
2021/06/18 14:41:59;;;;;;;0.10;0.10;;;;;;;26.79;35.34;100604.41;6264436;23;20066;-85
2021/06/18 14:44:39;;;;;;;0.10;0.10;;;;;;;26.80;35.09;100608.03;6217307;22;20015;-85
2021/06/18 14:47:12;;;;;;;0.10;0.10;;;;;;;26.70;34.87;100605.84;6245879;22;20023;-87
2021/06/18 14:50:25;;;;;;;0.10;0.10;;;;;;;26.67;35.53;100601.59;6236778;23;20043;-85
2021/06/18 14:52:58;;;;;;;0.10;0.10;;;;;;;26.66;35.34;100611.00;6236013;23;20076;-83
2021/06/18 14:55:27;;;;;;;0.10;0.10;;;;;;;26.66;35.68;100610.16;6212540;23;20040;-83
2021/06/18 14:58:05;;;;;;;0.10;0.10;;;;;;;26.60;35.49;100605.53;6184372;23;20011;-85
2021/06/18 15:00:40;;;;;;;0.17;0.10;;;;;;;26.49;35.68;100604.41;6285466;22;20012;-84
2021/06/18 15:03:17;;;;;;;0.10;0.10;;;;;;;26.43;35.57;100613.59;6236872;22;20016;-84
2021/06/18 15:05:47;;;;;;;0.10;0.10;;;;;;;26.43;35.58;100616.38;6238532;22;20020;-83
2021/06/18 15:08:16;;;;;;;0.10;0.10;;;;;;;26.47;35.32;100612.09;6201719;22;20044;-85
2021/06/18 15:10:45;;;;;;;0.10;0.10;;;;;;;26.49;36.09;100607.16;6271913;22;20039;-85
2021/06/18 15:13:19;;;;;;;0.10;0.10;;;;;;;26.40;35.79;100600.19;6272562;22;20017;-85
2021/06/18 15:15:48;;;;;;;0.10;0.10;;;;;;;26.32;35.53;100608.84;6333886;22;20078;-86
2021/06/18 15:18:16;;;;;;;0.20;0.20;;;;;;;26.36;35.02;100604.50;6329293;22;20034;-82
2021/06/18 15:20:46;;;;;;;0.10;0.10;;;;;;;26.26;35.46;100591.22;6281578;22;20105;-86
2021/06/18 15:23:15;;;;;;;0.10;0.10;;;;;;;26.20;35.33;100601.28;6306727;22;20062;-85
2021/06/18 15:25:43;;;;;;;0.20;0.20;;;;;;;26.24;35.70;100598.06;6254175;22;20018;-85
2021/06/18 15:28:12;;;;;;;0.10;0.10;;;;;;;26.20;35.62;100600.44;6253791;22;20033;-85
2021/06/18 15:30:40;;;;;;;0.10;0.10;;;;;;;26.14;34.90;100588.38;6295199;22;20047;-84
2021/06/18 15:33:09;;;;;;;0.32;0.10;;;;;;;26.09;35.29;100588.19;6300397;22;20030;-85
2021/06/18 15:35:36;;;;;;;0.10;0.10;;;;;;;26.10;35.08;100584.34;6294476;22;20039;-86
2021/06/18 15:38:05;;;;;;;0.10;0.10;;;;;;;26.12;35.10;100582.19;6294421;22;20428;-82
2021/06/18 15:40:33;;;;;;;0.10;0.10;;;;;;;26.06;35.29;100588.66;6245938;22;20023;-86
2021/06/18 15:43:02;;;;;;;0.10;0.10;;;;;;;26.01;35.51;100580.19;6323018;22;20003;-85
2021/06/18 15:45:30;;;;;;;0.45;0.10;;;;;;;25.95;35.65;100586.66;6297997;22;20023;-83
2021/06/18 15:51:16;;;;;;;0.10;0.10;;;;;;;25.95;36.10;100581.09;6287429;22;20023;-83
2021/06/18 15:53:44;;;;;;;0.10;0.10;;;;;;;25.90;36.58;100584.56;6270244;22;20003;-86
2021/06/18 15:56:11;;;;;;;0.10;0.10;;;;;;;25.89;37.03;100582.88;6221661;22;20070;-85
2021/06/18 15:58:38;;;;;;;0.10;0.10;;;;;;;25.88;37.07;100569.25;6275756;22;20038;-85
2021/06/18 16:01:07;;;;;;;0.10;0.10;;;;;;;25.80;37.04;100570.41;6268592;22;20004;-86
2021/06/18 16:03:37;;;;;;;0.10;0.10;;;;;;;25.80;37.49;100572.31;6239081;23;20020;-83
2021/06/18 16:06:04;;;;;;;0.10;0.10;;;;;;;25.79;37.97;100576.19;6213472;22;20051;-85
2021/06/18 16:08:32;;;;;;;0.10;0.10;;;;;;;25.71;37.98;100569.81;6235974;22;20008;-85
2021/06/18 16:11:04;;;;;;;0.10;0.10;;;;;;;25.65;38.65;100567.94;6211969;22;20020;-83
2021/06/18 16:13:31;;;;;;;0.10;0.10;;;;;;;25.64;38.40;100569.03;6286180;22;20095;-84
2021/06/18 16:15:58;;;;;;;0.10;0.10;;;;;;;25.63;38.81;100567.34;6257247;23;20019;-85
2021/06/18 16:18:30;;;;;;;0.10;0.10;;;;;;;25.59;38.51;100571.63;6260663;23;20068;-85
2021/06/18 16:20:59;;;;;;;0.10;0.10;;;;;;;25.56;38.83;100576.78;6233769;22;20072;-84
2021/06/18 16:23:26;;;;;;;0.20;0.10;;;;;;;25.53;38.77;100577.25;6286637;22;20040;-84
2021/06/18 16:25:53;;;;;;;0.13;0.13;;;;;;;25.47;39.14;100579.00;6262717;22;20007;-82
2021/06/18 16:31:23;;;;;;;0.10;0.10;;;;;;;25.43;39.03;100574.97;6322538;22;20011;-85
2021/06/18 16:33:52;;;;;;;0.10;0.10;;;;;;;25.35;39.15;100583.56;6258234;22;20023;-84
2021/06/18 16:36:22;;;;;;;0.10;0.10;;;;;;;25.28;39.33;100580.00;6294027;22;20019;-84
2021/06/18 16:38:52;;;;;;;0.10;0.10;;;;;;;25.30;39.81;100577.84;6289635;22;20087;-83
2021/06/18 16:41:20;;;;;;;0.10;0.10;;;;;;;25.31;39.66;100580.41;6264429;22;20050;-83
2021/06/18 16:43:47;;;;;;;0.20;0.10;;;;;;;25.28;39.87;100580.00;6292550;22;20081;-84
2021/06/18 16:46:14;;;;;;;0.10;0.10;;;;;;;25.26;39.81;100578.28;6265435;22;20020;-85
2021/06/18 16:48:42;;;;;;;0.63;0.10;;;;;;;25.23;39.70;100573.22;6265792;22;20114;-83
2021/06/18 16:51:09;;;;;;;0.20;0.20;;;;;;;25.18;39.77;100569.44;6241896;22;20034;-86
2021/06/18 16:53:37;;;;;;;0.10;0.10;;;;;;;25.13;39.92;100566.50;6266881;22;20016;-85
2021/06/18 16:56:04;;;;;;;0.10;0.10;;;;;;;25.12;39.62;100564.78;6292542;22;20042;-85
2021/06/18 16:58:36;;;;;;;0.30;0.10;;;;;;;25.06;39.79;100571.19;6291275;22;20019;-84
2021/06/18 17:01:06;;;;;;;0.30;0.10;;;;;;;24.99;40.05;100566.56;6245287;22;20029;-86
2021/06/18 17:03:37;;;;;;;0.30;0.10;;;;;;;24.99;40.14;100566.56;6242339;22;20054;-82
2021/06/18 17:06:06;;;;;;;0.10;0.10;;;;;;;24.95;40.31;100561.69;6267772;22;20020;-84
2021/06/18 17:08:39;;;;;;;0.10;0.10;;;;;;;24.94;40.37;100557.25;6268690;22;20023;-81
2021/06/18 17:11:11;;;;;;;0.10;0.10;;;;;;;24.95;40.66;100556.16;6269158;22;20026;-83
2021/06/18 17:14:02;;;;;;;0.17;0.17;;;;;;;24.86;40.79;100558.34;6269981;22;20091;-84
2021/06/18 17:16:33;;;;;;;0.10;0.10;;;;;;;24.81;40.53;100565.63;6265258;22;20039;-84
2021/06/18 17:19:00;;;;;;;0.17;0.15;;;;;;;24.78;40.69;100566.91;6268128;22;20093;-83
2021/06/18 17:21:28;;;;;;;0.38;0.17;;;;;;;24.70;40.91;100568.00;6264666;22;20054;-81
2021/06/18 17:23:56;;;;;;;0.10;0.10;;;;;;;24.66;41.41;100577.81;6265828;22;20019;-85
2021/06/18 17:26:25;;;;;;;0.20;0.13;;;;;;;24.61;41.13;100566.59;6293041;22;20020;-84
2021/06/18 17:28:51;;;;;;;0.28;0.10;;;;;;;24.60;41.38;100578.69;6287367;22;20161;-82
2021/06/18 17:31:20;;;;;;;0.32;0.20;;;;;;;24.53;42.01;100572.34;6291882;22;20030;-85
2021/06/18 17:33:50;;;;;;;0.20;0.20;;;;;;;24.47;41.67;100573.25;6267210;22;20008;-83
2021/06/18 17:36:22;;;;;;;0.85;0.10;;;;;;;24.45;41.78;100580.91;6292837;22;20016;-84
2021/06/18 17:38:55;;;;;;;0.10;0.10;;;;;;;24.40;41.97;100566.91;6269230;22;20023;-81
2021/06/18 17:41:22;;;;;;;0.43;0.20;;;;;;;24.34;41.92;100573.28;6270524;22;20015;-84
2021/06/18 17:46:53;;;;;;;0.15;0.10;;;;;;;24.23;41.85;100574.78;6242651;22;20075;-85
2021/06/18 17:49:33;;;;;;;0.20;0.20;;;;;;;24.14;42.61;100565.06;6261797;22;20035;-83
2021/06/18 17:52:42;;;;;;;0.10;0.10;;;;;;;24.09;42.68;100568.47;6287435;22;20020;-82